Time;durP1;ratioP1;P1;durP2;ratioP2;P2;SDS_P1;SDS_P2;PMS_P1;PMS_P2;Temp;Humidity;BMP_temperature;BMP_pressure;BME280_temperature;BME280_humidity;BME280_pressure;Samples;Min_cycle;Max_cycle;Signal;HPM_P1;HPM_P2
2021/01/28 00:00:55;;;;;;;17.10;9.80;;;3.90;99.90;;;;;;4969678;28;20026;-84
2021/01/28 00:03:21;;;;;;;18.75;9.57;;;3.90;99.90;;;;;;4968608;28;20042;-84
2021/01/28 00:05:46;;;;;;;13.90;8.90;;;3.90;99.90;;;;;;4967256;28;20041;-84
2021/01/28 00:08:14;;;;;;;13.50;8.48;;;3.80;99.90;;;;;;4969815;28;20471;-85
2021/01/28 00:10:39;;;;;;;13.70;8.95;;;3.90;99.90;;;;;;4967283;28;20039;-84
2021/01/28 00:13:11;;;;;;;13.48;8.13;;;3.90;99.90;;;;;;4968805;28;20035;-84
2021/01/28 00:15:36;;;;;;;;;;;3.90;99.90;;;;;;4963709;28;21591;-84
2021/01/28 00:18:04;;;;;;;13.40;8.55;;;3.90;99.90;;;;;;4963811;28;19960;-84
2021/01/28 00:20:39;;;;;;;14.75;8.55;;;3.90;99.90;;;;;;4963192;28;20027;-84
2021/01/28 00:23:05;;;;;;;14.43;8.57;;;3.80;99.90;;;;;;4960840;28;20023;-84
2021/01/28 00:25:31;;;;;;;16.10;8.68;;;3.80;99.90;;;;;;4969659;28;20042;-85
2021/01/28 00:27:57;;;;;;;17.13;9.20;;;3.90;99.90;;;;;;4969103;28;20392;-85
2021/01/28 00:30:35;;;;;;;13.43;8.63;;;3.80;99.90;;;;;;4963694;28;20027;-85
2021/01/28 00:33:01;;;;;;;11.82;8.27;;;3.90;99.90;;;;;;4963562;28;20639;-84
2021/01/28 00:35:31;;;;;;;16.60;8.88;;;3.90;99.90;;;;;;4968016;28;20054;-84
2021/01/28 00:37:58;;;;;;;15.48;8.35;;;3.90;99.90;;;;;;4962760;28;20548;-85
2021/01/28 00:40:25;;;;;;;15.25;9.35;;;4.00;99.90;;;;;;4970679;28;20122;-84
2021/01/28 00:42:51;;;;;;;17.05;8.18;;;3.90;99.90;;;;;;4965610;28;20027;-84
2021/01/28 00:45:18;;;;;;;12.55;8.52;;;4.00;99.90;;;;;;4968728;28;20114;-84
2021/01/28 00:47:44;;;;;;;13.93;8.55;;;3.90;99.90;;;;;;4964627;28;20061;-85
2021/01/28 00:50:10;;;;;;;15.32;8.68;;;3.90;99.90;;;;;;4967621;28;20026;-85
2021/01/28 00:52:38;;;;;;;15.70;8.68;;;4.00;99.90;;;;;;4963696;28;20393;-85
2021/01/28 00:55:04;;;;;;;12.55;8.23;;;3.90;99.90;;;;;;4964469;28;20043;-85
2021/01/28 00:57:30;;;;;;;13.10;8.10;;;4.00;99.90;;;;;;4967464;28;20230;-84
2021/01/28 00:59:55;;;;;;;14.70;8.43;;;3.90;99.90;;;;;;4968977;28;20081;-85
2021/01/28 01:02:21;;;;;;;17.25;9.00;;;3.90;99.90;;;;;;4967525;28;20027;-84
2021/01/28 01:04:46;;;;;;;14.82;8.85;;;3.80;99.90;;;;;;4968442;28;20477;-84
2021/01/28 01:07:12;;;;;;;12.38;8.30;;;3.90;99.90;;;;;;4967919;28;20027;-84
2021/01/28 01:09:37;;;;;;;13.07;8.43;;;3.90;99.90;;;;;;4962657;28;20038;-84
2021/01/28 01:12:03;;;;;;;13.80;8.32;;;3.90;99.90;;;;;;4964859;28;20074;-85
2021/01/28 01:14:28;;;;;;;12.48;8.25;;;4.00;99.90;;;;;;4960088;28;20030;-85
2021/01/28 01:16:54;;;;;;;14.32;8.73;;;3.90;99.90;;;;;;4966847;28;20500;-84
2021/01/28 01:19:19;;;;;;;12.38;8.23;;;3.90;99.90;;;;;;4958424;28;20027;-84
2021/01/28 01:21:45;;;;;;;13.50;8.85;;;3.90;99.90;;;;;;4961713;28;20110;-84
2021/01/28 01:24:10;;;;;;;13.80;8.45;;;3.90;99.90;;;;;;4965611;28;20046;-85
2021/01/28 01:26:36;;;;;;;12.75;8.65;;;3.90;99.90;;;;;;4965923;28;20039;-84
2021/01/28 01:29:01;;;;;;;15.15;9.13;;;3.90;99.90;;;;;;4959440;28;20363;-84
2021/01/28 01:31:27;;;;;;;12.77;8.45;;;3.80;99.90;;;;;;4962226;28;20030;-85
2021/01/28 01:33:52;;;;;;;13.68;8.30;;;3.90;99.90;;;;;;4965958;28;20043;-84
2021/01/28 01:36:18;;;;;;;12.25;8.32;;;3.80;99.90;;;;;;4965285;28;20046;-83
2021/01/28 01:38:43;;;;;;;13.77;8.48;;;3.80;99.90;;;;;;4968582;28;20085;-84
2021/01/28 01:41:09;;;;;;;16.23;8.75;;;3.80;99.90;;;;;;4970338;28;20034;-85
2021/01/28 01:43:34;;;;;;;13.43;8.32;;;3.80;99.90;;;;;;4965804;28;20027;-86
2021/01/28 01:46:10;;;;;;;15.27;9.23;;;3.80;99.90;;;;;;4964590;28;20031;-85
2021/01/28 01:48:39;;;;;;;18.50;9.15;;;3.80;99.90;;;;;;4966388;28;20030;-85
2021/01/28 01:51:14;;;;;;;15.00;8.75;;;3.90;99.90;;;;;;4967479;28;20062;-84
2021/01/28 01:53:44;;;;;;;14.65;9.15;;;3.90;99.90;;;;;;4963672;28;20037;-84
2021/01/28 01:56:15;;;;;;;14.30;8.98;;;3.90;99.90;;;;;;4968019;28;20109;-84
2021/01/28 01:59:05;;;;;;;13.82;8.48;;;3.90;99.90;;;;;;4964291;28;20062;-84
2021/01/28 02:01:36;;;;;;;14.55;8.65;;;3.90;99.90;;;;;;4962391;28;20027;-83
2021/01/28 02:04:02;;;;;;;;;;;3.90;99.90;;;;;;4965726;28;20381;-84
2021/01/28 02:06:38;;;;;;;14.90;7.57;;;3.90;99.90;;;;;;4968546;28;19910;-84
2021/01/28 02:09:05;;;;;;;14.77;8.57;;;4.00;99.90;;;;;;4968958;28;20039;-84
2021/01/28 02:11:31;;;;;;;14.73;8.85;;;4.00;99.90;;;;;;4964988;28;20022;-83
2021/01/28 02:14:00;;;;;;;13.57;8.70;;;4.00;99.90;;;;;;4964951;28;20031;-85
2021/01/28 02:16:30;;;;;;;15.23;9.10;;;4.00;99.90;;;;;;4964422;28;20109;-83
2021/01/28 02:18:58;;;;;;;17.02;9.30;;;4.10;99.90;;;;;;4967619;28;20043;-84
2021/01/28 02:21:27;;;;;;;15.30;8.90;;;4.10;99.90;;;;;;4955127;28;20154;-83
2021/01/28 02:24:27;;;;;;;15.63;9.10;;;4.10;99.90;;;;;;4964788;28;20126;-82
2021/01/28 02:26:54;;;;;;;15.05;9.23;;;4.20;99.90;;;;;;4966375;28;20094;-83
2021/01/28 02:29:23;;;;;;;15.60;9.30;;;4.10;99.90;;;;;;4967754;28;20031;-82
2021/01/28 02:31:52;;;;;;;18.08;10.35;;;4.20;99.90;;;;;;4969810;28;20030;-83
2021/01/28 02:34:19;;;;;;;16.10;9.35;;;4.20;99.90;;;;;;4965612;28;20037;-84
2021/01/28 02:36:48;;;;;;;15.88;9.30;;;4.20;99.90;;;;;;4959031;28;20035;-83
2021/01/28 02:39:16;;;;;;;15.95;9.40;;;4.20;99.90;;;;;;4967946;28;20031;-82
2021/01/28 02:41:44;;;;;;;14.65;8.88;;;4.20;99.90;;;;;;4972506;28;20108;-82
2021/01/28 02:44:10;;;;;;;13.18;9.10;;;4.20;99.90;;;;;;4968980;28;20111;-83
2021/01/28 02:46:37;;;;;;;17.27;10.13;;;4.30;99.90;;;;;;4976872;28;20035;-83
2021/01/28 02:49:03;;;;;;;16.55;9.70;;;4.30;99.90;;;;;;4968811;28;20038;-84
2021/01/28 02:51:29;;;;;;;16.27;9.60;;;4.40;99.90;;;;;;4971889;28;20172;-84
2021/01/28 02:53:55;;;;;;;16.77;9.48;;;4.40;99.90;;;;;;4967967;28;20129;-84
2021/01/28 02:56:26;;;;;;;14.10;8.85;;;4.40;99.90;;;;;;4961710;28;20035;-85
2021/01/28 02:58:51;;;;;;;16.48;9.98;;;4.30;99.90;;;;;;4966603;28;20524;-84
2021/01/28 03:01:18;;;;;;;15.30;9.65;;;4.40;99.90;;;;;;4971275;28;20031;-84
2021/01/28 03:03:44;;;;;;;14.55;9.25;;;4.40;99.90;;;;;;4965440;28;20035;-84
2021/01/28 03:06:11;;;;;;;15.93;9.85;;;4.40;99.90;;;;;;4970163;28;20023;-83
2021/01/28 03:08:37;;;;;;;15.07;8.88;;;4.50;99.90;;;;;;4968982;28;20027;-84
2021/01/28 03:11:03;;;;;;;13.73;8.60;;;4.40;99.90;;;;;;4965766;28;20033;-83
2021/01/28 03:13:29;;;;;;;16.00;9.63;;;4.50;99.90;;;;;;4967910;28;20039;-83
2021/01/28 03:15:56;;;;;;;14.23;8.43;;;4.50;99.90;;;;;;4960351;28;20544;-84
2021/01/28 03:18:22;;;;;;;13.57;8.90;;;4.60;99.90;;;;;;4969931;28;20031;-84
2021/01/28 03:20:47;;;;;;;15.32;9.30;;;4.50;99.90;;;;;;4960152;28;20054;-83
2021/01/28 03:23:15;;;;;;;13.63;9.13;;;4.50;99.90;;;;;;4966199;28;20107;-83
2021/01/28 03:25:41;;;;;;;14.40;9.02;;;4.50;99.90;;;;;;4961517;28;20488;-83
2021/01/28 03:28:07;;;;;;;14.55;9.18;;;4.60;99.90;;;;;;4963028;28;20118;-83
2021/01/28 03:30:37;;;;;;;13.52;8.73;;;4.60;99.90;;;;;;4971089;28;20027;-83
2021/01/28 03:33:06;;;;;;;13.48;8.35;;;4.60;99.90;;;;;;4968259;28;20034;-83
2021/01/28 03:35:32;;;;;;;16.08;9.13;;;4.60;99.90;;;;;;4968290;28;20486;-84
2021/01/28 03:37:58;;;;;;;15.02;9.00;;;4.70;99.90;;;;;;4968391;28;20037;-83
2021/01/28 03:40:26;;;;;;;15.70;9.48;;;4.60;99.90;;;;;;4970975;28;20022;-85
2021/01/28 03:42:52;;;;;;;15.18;9.02;;;4.60;99.90;;;;;;4967887;28;20031;-84
2021/01/28 03:45:18;;;;;;;16.00;9.40;;;4.60;99.90;;;;;;4968944;28;20109;-85
2021/01/28 03:47:44;;;;;;;16.55;9.93;;;4.60;99.90;;;;;;4964741;28;20162;-84
2021/01/28 03:50:11;;;;;;;15.15;9.40;;;4.60;99.90;;;;;;4963575;28;20065;-83
2021/01/28 03:52:37;;;;;;;17.60;10.75;;;4.60;99.90;;;;;;4965908;28;20039;-83
2021/01/28 03:55:04;;;;;;;15.57;9.80;;;4.60;99.90;;;;;;4960385;28;20041;-83
2021/01/28 03:57:29;;;;;;;18.77;11.18;;;4.70;99.90;;;;;;4963707;28;20410;-83
2021/01/28 03:59:54;;;;;;;21.95;10.65;;;4.60;99.90;;;;;;4967692;28;20034;-83
2021/01/28 04:02:20;;;;;;;16.85;10.20;;;4.60;99.90;;;;;;4965231;28;20485;-84
2021/01/28 04:04:57;;;;;;;19.60;11.20;;;4.70;99.90;;;;;;4964598;28;20026;-84
2021/01/28 04:07:23;;;;;;;17.83;10.77;;;4.70;99.90;;;;;;4965875;28;20030;-84
2021/01/28 04:09:48;;;;;;;18.63;10.00;;;4.70;99.90;;;;;;4967642;28;20042;-84
2021/01/28 04:12:13;;;;;;;13.50;8.35;;;4.70;99.90;;;;;;4964634;28;20031;-83
2021/01/28 04:14:39;;;;;;;17.15;9.15;;;4.70;99.90;;;;;;4964260;28;20054;-84
2021/01/28 04:17:04;;;;;;;17.05;10.32;;;4.70;99.90;;;;;;4961193;28;20493;-84
2021/01/28 04:19:33;;;;;;;14.90;9.07;;;4.70;99.90;;;;;;4967519;28;20023;-84
2021/01/28 04:21:59;;;;;;;17.98;10.27;;;4.60;99.90;;;;;;4962715;28;20019;-84
2021/01/28 04:24:25;;;;;;;17.95;10.68;;;4.60;99.90;;;;;;4970141;28;20524;-85
2021/01/28 04:26:50;;;;;;;22.95;10.70;;;4.70;99.90;;;;;;4969175;28;20023;-85
2021/01/28 04:29:16;;;;;;;17.90;10.75;;;4.80;99.90;;;;;;4968209;28;20548;-85
2021/01/28 04:31:41;;;;;;;18.20;11.32;;;4.70;99.90;;;;;;4967138;28;20038;-83
2021/01/28 04:34:07;;;;;;;19.10;10.98;;;4.70;99.90;;;;;;4964621;28;20033;-84
2021/01/28 04:36:33;;;;;;;16.95;10.77;;;4.70;99.90;;;;;;4969150;28;20045;-84
2021/01/28 04:38:58;;;;;;;19.05;11.50;;;4.70;99.90;;;;;;4969843;28;20069;-85
2021/01/28 04:41:27;;;;;;;18.13;10.43;;;4.70;99.90;;;;;;4977544;28;20038;-84
2021/01/28 04:43:55;;;;;;;18.58;10.75;;;4.80;99.90;;;;;;4968659;28;20027;-84
2021/01/28 04:46:25;;;;;;;18.65;10.82;;;4.80;99.90;;;;;;4968018;28;20025;-84
2021/01/28 04:48:52;;;;;;;19.00;11.48;;;4.80;99.90;;;;;;4963449;28;20062;-84
2021/01/28 04:51:17;;;;;;;18.92;11.23;;;4.80;99.90;;;;;;4968435;28;20122;-84
2021/01/28 04:53:52;;;;;;;20.55;11.00;;;4.80;99.90;;;;;;4967746;28;20150;-84
2021/01/28 04:56:21;;;;;;;18.65;11.07;;;4.80;99.90;;;;;;4969137;28;20497;-83
2021/01/28 04:58:50;;;;;;;18.88;11.20;;;4.80;99.90;;;;;;4968069;28;20491;-84
2021/01/28 05:01:15;;;;;;;21.55;11.35;;;4.80;99.90;;;;;;4969097;28;20026;-83
2021/01/28 05:03:49;;;;;;;19.65;10.95;;;4.80;99.90;;;;;;4967516;28;20050;-85
2021/01/28 05:06:14;;;;;;;19.10;10.65;;;4.80;99.90;;;;;;4966198;28;20023;-84
2021/01/28 05:08:40;;;;;;;21.08;11.65;;;4.90;99.90;;;;;;4965289;28;20045;-85
2021/01/28 05:11:30;;;;;;;20.73;12.07;;;4.90;99.90;;;;;;4968388;28;20385;-85
2021/01/28 05:14:18;;;;;;;21.90;11.13;;;4.90;99.90;;;;;;4965312;28;20106;-84
2021/01/28 05:16:45;;;;;;;20.80;11.15;;;4.90;99.90;;;;;;4967335;28;20238;-84
2021/01/28 05:19:29;;;;;;;19.55;11.70;;;4.90;99.90;;;;;;4961776;28;20058;-85
2021/01/28 05:22:17;;;;;;;21.63;11.18;;;4.90;99.90;;;;;;4966329;28;20031;-85
2021/01/28 05:24:48;;;;;;;19.73;11.07;;;4.90;99.90;;;;;;4964972;28;20050;-84
2021/01/28 05:27:16;;;;;;;;;;;4.90;99.90;;;;;;4962832;28;20026;-84
2021/01/28 05:29:46;;;;;;;21.17;11.05;;;5.00;99.90;;;;;;4960660;28;19988;-84
2021/01/28 05:32:31;;;;;;;18.00;11.10;;;5.00;99.90;;;;;;4966773;28;20027;-84
2021/01/28 05:35:21;;;;;;;21.23;11.73;;;5.00;99.90;;;;;;4966642;28;20041;-83
2021/01/28 05:37:47;;;;;;;18.65;10.93;;;5.00;99.90;;;;;;4963010;28;20421;-84
2021/01/28 05:40:18;;;;;;;19.98;10.88;;;5.00;99.90;;;;;;4966929;28;20045;-84
2021/01/28 05:42:44;;;;;;;19.95;11.40;;;5.00;99.90;;;;;;4964992;28;20389;-84
2021/01/28 05:45:36;;;;;;;22.23;11.35;;;5.10;99.90;;;;;;4967677;28;20039;-84
2021/01/28 05:48:30;;;;;;;19.52;11.55;;;5.10;99.90;;;;;;4968498;28;20054;-83
2021/01/28 05:51:10;;;;;;;21.13;11.00;;;5.10;99.90;;;;;;4966223;28;20070;-83
2021/01/28 05:53:36;;;;;;;23.35;12.30;;;5.10;99.90;;;;;;4966625;28;20335;-83
2021/01/28 05:56:03;;;;;;;22.73;12.80;;;5.10;99.90;;;;;;4966360;28;20033;-83
2021/01/28 05:58:28;;;;;;;24.85;13.05;;;5.20;99.90;;;;;;4966399;28;20039;-83
2021/01/28 06:01:01;;;;;;;23.27;13.30;;;5.20;99.90;;;;;;4964510;28;20034;-83
2021/01/28 06:03:55;;;;;;;19.45;10.95;;;5.20;99.90;;;;;;4967419;28;20497;-84
2021/01/28 06:06:42;;;;;;;23.13;12.82;;;5.30;99.90;;;;;;4957141;28;20085;-84
2021/01/28 06:09:37;;;;;;;22.23;10.98;;;5.20;99.90;;;;;;4970895;28;20074;-84
2021/01/28 06:12:34;;;;;;;16.40;9.73;;;5.30;99.90;;;;;;4968601;28;20047;-83
2021/01/28 06:15:28;;;;;;;18.92;10.63;;;5.40;99.90;;;;;;4963182;28;20034;-83
2021/01/28 06:18:11;;;;;;;20.50;11.35;;;5.40;99.90;;;;;;4971680;28;20031;-83
2021/01/28 06:21:14;;;;;;;18.60;10.38;;;5.40;99.90;;;;;;4971333;28;20031;-84
2021/01/28 06:24:17;;;;;;;18.38;10.05;;;5.40;99.90;;;;;;4969651;28;20715;-83
2021/01/28 06:27:20;;;;;;;15.43;9.88;;;5.40;99.90;;;;;;4968404;28;20018;-84
2021/01/28 06:30:12;;;;;;;15.38;8.75;;;5.40;99.90;;;;;;4967235;28;20027;-83
2021/01/28 06:33:14;;;;;;;16.52;8.55;;;5.40;99.90;;;;;;4971045;28;20564;-83
2021/01/28 06:36:08;;;;;;;17.77;8.27;;;5.40;99.90;;;;;;4963422;28;20034;-83
2021/01/28 06:38:53;;;;;;;12.93;7.90;;;5.40;99.90;;;;;;4970759;28;20054;-83
2021/01/28 06:41:24;;;;;;;11.35;6.93;;;5.40;99.90;;;;;;4971188;28;20027;-84
2021/01/28 06:44:01;;;;;;;12.25;6.78;;;5.30;99.90;;;;;;4970612;28;20030;-84
2021/01/28 06:46:35;;;;;;;11.98;7.03;;;5.40;99.90;;;;;;4972427;28;20033;-83
2021/01/28 06:49:19;;;;;;;10.40;6.30;;;5.40;99.90;;;;;;4969058;28;20039;-83
2021/01/28 06:52:20;;;;;;;9.82;5.30;;;5.40;99.90;;;;;;4962418;28;20023;-83
2021/01/28 06:55:00;;;;;;;8.15;4.10;;;5.30;99.90;;;;;;4968674;28;20047;-84
2021/01/28 06:57:40;;;;;;;6.38;4.10;;;5.30;99.90;;;;;;4966391;28;20022;-83
2021/01/28 07:00:28;;;;;;;4.10;2.90;;;5.20;99.90;;;;;;4963568;28;20031;-83
2021/01/28 07:03:22;;;;;;;5.10;2.95;;;5.10;99.90;;;;;;4968536;28;20026;-83
2021/01/28 07:06:02;;;;;;;4.60;2.88;;;5.10;99.90;;;;;;4971256;28;20026;-83
2021/01/28 07:08:30;;;;;;;4.47;3.15;;;5.10;99.90;;;;;;4966283;28;20027;-82
2021/01/28 07:10:55;;;;;;;4.72;2.95;;;5.10;99.90;;;;;;4978511;28;20042;-83
2021/01/28 07:13:27;;;;;;;5.15;3.35;;;5.10;99.90;;;;;;4970579;28;20031;-83
2021/01/28 07:16:09;;;;;;;5.72;3.58;;;5.20;99.90;;;;;;4965800;28;20027;-83
2021/01/28 07:18:46;;;;;;;7.70;4.13;;;5.10;99.90;;;;;;4966235;28;20046;-82
2021/01/28 07:21:32;;;;;;;5.80;3.58;;;5.00;99.90;;;;;;4962826;28;20014;-82
2021/01/28 07:24:24;;;;;;;6.82;3.95;;;5.10;99.90;;;;;;4970727;28;20042;-82
2021/01/28 07:27:03;;;;;;;6.40;3.70;;;5.10;99.90;;;;;;4965807;28;20031;-82
2021/01/28 07:29:35;;;;;;;8.77;4.28;;;5.10;99.90;;;;;;4965255;28;20037;-82
2021/01/28 07:32:01;;;;;;;;;;;5.10;99.90;;;;;;4971286;28;20038;-83
2021/01/28 07:34:27;;;;;;;8.20;4.60;;;5.10;99.90;;;;;;4969107;28;19910;-82
2021/01/28 07:36:58;;;;;;;8.52;4.68;;;5.20;99.90;;;;;;4967256;28;20034;-83
2021/01/28 07:39:30;;;;;;;8.35;4.65;;;5.20;99.90;;;;;;4974012;28;20150;-84
2021/01/28 07:41:59;;;;;;;8.85;4.95;;;5.10;99.90;;;;;;4979610;28;20118;-84
2021/01/28 07:44:24;;;;;;;7.95;4.90;;;5.10;99.90;;;;;;4966794;28;20062;-83
2021/01/28 07:46:53;;;;;;;8.93;5.05;;;5.10;99.90;;;;;;4967910;28;20061;-83
2021/01/28 07:49:28;;;;;;;8.43;5.20;;;5.10;99.90;;;;;;4965677;28;20034;-83
2021/01/28 07:52:02;;;;;;;8.05;4.95;;;5.20;99.90;;;;;;4968296;28;20027;-79
2021/01/28 07:54:28;;;;;;;9.93;5.53;;;5.10;99.90;;;;;;4961321;28;20045;-79
2021/01/28 07:56:58;;;;;;;9.13;5.18;;;5.20;99.90;;;;;;4967445;28;20028;-79
2021/01/28 07:59:37;;;;;;;10.25;5.10;;;5.10;99.90;;;;;;4966121;28;20093;-87
2021/01/28 08:02:33;;;;;;;8.13;4.88;;;5.10;99.90;;;;;;4971395;28;20023;-83
2021/01/28 08:05:08;;;;;;;8.27;4.40;;;5.10;99.90;;;;;;4965074;28;20042;-81
2021/01/28 08:07:43;;;;;;;9.43;5.38;;;5.10;99.90;;;;;;4968002;28;20045;-82
2021/01/28 08:10:29;;;;;;;15.65;5.55;;;5.10;99.90;;;;;;4969515;28;20189;-82
2021/01/28 08:13:06;;;;;;;10.68;5.40;;;5.10;99.90;;;;;;4970008;28;20049;-81
2021/01/28 08:15:36;;;;;;;10.52;5.35;;;5.10;99.90;;;;;;4970134;28;20105;-80
2021/01/28 08:18:11;;;;;;;8.18;4.45;;;5.10;99.90;;;;;;4968033;28;20023;-81
2021/01/28 08:20:37;;;;;;;10.05;4.90;;;5.10;99.90;;;;;;4968360;28;20027;-85
2021/01/28 08:23:06;;;;;;;9.57;4.88;;;5.20;99.90;;;;;;4968291;28;20517;-78
2021/01/28 08:25:38;;;;;;;10.13;5.30;;;5.20;99.90;;;;;;4958658;28;20490;-77
2021/01/28 08:28:10;;;;;;;8.25;4.80;;;5.20;99.90;;;;;;4957167;28;20027;-85
2021/01/28 08:30:35;;;;;;;32.38;12.90;;;5.10;99.90;;;;;;4972533;28;20100;-81
2021/01/28 08:33:02;;;;;;;23.88;10.43;;;5.10;99.90;;;;;;4968449;28;20121;-81
2021/01/28 08:35:34;;;;;;;22.00;9.65;;;5.10;99.90;;;;;;4967787;28;20022;-82
2021/01/28 08:38:19;;;;;;;11.65;6.68;;;5.10;99.90;;;;;;4962014;28;20022;-86
2021/01/28 08:40:57;;;;;;;12.25;7.03;;;5.10;99.90;;;;;;4952798;28;20394;-86
2021/01/28 08:43:22;;;;;;;11.40;5.97;;;5.20;99.90;;;;;;4964737;28;20026;-86
2021/01/28 08:45:48;;;;;;;10.52;5.40;;;5.30;99.90;;;;;;4962431;28;20096;-85
2021/01/28 08:48:23;;;;;;;13.50;7.50;;;5.30;99.90;;;;;;4964217;28;20482;-86
2021/01/28 08:50:48;;;;;;;9.82;5.60;;;5.30;99.90;;;;;;4966522;28;20113;-86
2021/01/28 08:53:17;;;;;;;11.48;6.00;;;5.30;99.90;;;;;;4962219;28;20489;-86
2021/01/28 08:55:44;;;;;;;9.95;5.60;;;5.40;99.90;;;;;;4964943;28;20133;-78
2021/01/28 08:58:20;;;;;;;11.07;5.38;;;5.30;99.90;;;;;;4964219;28;20113;-79
2021/01/28 09:00:49;;;;;;;11.85;5.70;;;5.20;99.90;;;;;;4965276;28;20026;-84
2021/01/28 09:03:26;;;;;;;10.68;5.28;;;5.30;99.90;;;;;;4966683;28;20026;-79
2021/01/28 09:06:01;;;;;;;7.45;4.68;;;5.30;99.90;;;;;;4963415;28;20025;-79
2021/01/28 09:08:36;;;;;;;10.63;5.40;;;5.30;99.90;;;;;;4962293;28;20109;-77
2021/01/28 09:11:25;;;;;;;9.13;5.28;;;5.30;99.90;;;;;;4967012;28;20030;-78
2021/01/28 09:14:14;;;;;;;10.63;5.32;;;5.30;99.90;;;;;;4967272;28;20125;-82
2021/01/28 09:16:40;;;;;;;10.27;5.43;;;5.40;99.90;;;;;;4961424;28;20049;-81
2021/01/28 09:19:15;;;;;;;9.38;5.07;;;5.30;99.90;;;;;;4962674;28;20062;-80
2021/01/28 09:21:43;;;;;;;8.68;5.20;;;5.20;99.90;;;;;;4970991;28;20037;-83
2021/01/28 09:24:19;;;;;;;12.73;5.35;;;5.10;99.90;;;;;;4968047;28;20047;-82
2021/01/28 09:26:45;;;;;;;9.80;4.68;;;5.20;99.90;;;;;;4964564;28;20061;-81
2021/01/28 09:29:36;;;;;;;10.23;5.10;;;5.40;99.90;;;;;;4966859;28;20093;-78
2021/01/28 09:32:14;;;;;;;9.90;4.75;;;5.40;99.90;;;;;;4965470;28;20041;-81
2021/01/28 09:34:40;;;;;;;8.55;4.90;;;5.50;99.90;;;;;;4961494;28;20390;-80
2021/01/28 09:37:21;;;;;;;8.50;4.72;;;5.40;99.90;;;;;;4960673;28;20056;-77
2021/01/28 09:39:55;;;;;;;9.07;4.97;;;5.50;99.90;;;;;;4965017;28;20030;-77
2021/01/28 09:42:33;;;;;;;8.68;4.78;;;5.60;99.90;;;;;;4967823;28;20041;-81
2021/01/28 09:45:22;;;;;;;9.05;5.22;;;5.50;99.90;;;;;;4967956;28;20031;-78
2021/01/28 09:47:54;;;;;;;9.38;4.95;;;5.50;99.90;;;;;;4970435;28;20027;-86
2021/01/28 09:50:21;;;;;;;11.50;4.82;;;5.60;99.90;;;;;;4969172;28;20059;-86
2021/01/28 09:52:48;;;;;;;9.20;4.97;;;5.50;99.90;;;;;;4968771;28;20031;-79
2021/01/28 09:55:24;;;;;;;8.55;4.93;;;5.60;99.90;;;;;;4969544;28;20038;-77
2021/01/28 09:57:53;;;;;;;8.18;5.25;;;5.60;99.90;;;;;;4961320;28;20494;-76
2021/01/28 10:00:21;;;;;;;12.75;5.30;;;5.50;99.90;;;;;;4962904;28;20442;-76
2021/01/28 10:02:57;;;;;;;8.60;5.20;;;5.60;99.90;;;;;;4959884;28;20027;-76
2021/01/28 10:05:24;;;;;;;10.23;5.60;;;5.70;99.90;;;;;;4968294;28;20075;-77
2021/01/28 10:07:51;;;;;;;7.97;4.47;;;5.70;99.90;;;;;;4968510;28;20026;-77
2021/01/28 10:10:18;;;;;;;13.90;5.50;;;5.80;99.90;;;;;;4967881;28;20553;-76
2021/01/28 10:12:44;;;;;;;9.60;5.57;;;5.70;99.90;;;;;;4965997;28;20045;-77
2021/01/28 10:15:10;;;;;;;9.48;5.18;;;5.70;99.90;;;;;;4967678;28;20026;-76
2021/01/28 10:17:35;;;;;;;10.38;4.88;;;5.70;99.90;;;;;;4966634;28;20039;-76
2021/01/28 10:20:02;;;;;;;10.10;5.40;;;5.60;99.90;;;;;;4968069;28;20091;-76
2021/01/28 10:22:29;;;;;;;10.35;4.93;;;5.70;99.90;;;;;;4969048;28;20023;-76
2021/01/28 10:25:13;;;;;;;10.75;5.68;;;5.70;99.90;;;;;;4965330;28;20142;-76
2021/01/28 10:27:38;;;;;;;9.77;5.25;;;5.60;99.90;;;;;;4969058;28;20118;-76
2021/01/28 10:30:06;;;;;;;11.00;5.35;;;5.60;99.90;;;;;;4968825;28;20685;-76
2021/01/28 10:32:31;;;;;;;9.50;5.28;;;5.70;99.90;;;;;;4967878;28;20038;-76
2021/01/28 10:34:58;;;;;;;7.70;5.00;;;5.90;99.90;;;;;;4965671;28;20035;-76
2021/01/28 10:37:23;;;;;;;8.88;4.53;;;5.90;99.90;;;;;;4963899;28;20520;-77
2021/01/28 10:39:49;;;;;;;10.18;5.40;;;5.90;99.90;;;;;;4969197;28;20038;-76
2021/01/28 10:42:19;;;;;;;8.05;4.57;;;6.00;99.90;;;;;;4969266;28;20394;-75
2021/01/28 10:44:47;;;;;;;9.07;4.30;;;6.00;99.90;;;;;;4967268;28;20023;-76
2021/01/28 10:47:18;;;;;;;8.50;4.32;;;6.00;99.90;;;;;;4962263;28;20365;-77
2021/01/28 10:49:44;;;;;;;8.18;5.10;;;6.00;99.90;;;;;;4961125;28;20536;-76
2021/01/28 10:52:09;;;;;;;8.68;4.50;;;6.00;99.90;;;;;;4960955;28;20039;-77
2021/01/28 10:54:35;;;;;;;8.57;4.63;;;5.90;99.90;;;;;;4962864;28;20707;-77
2021/01/28 10:57:03;;;;;;;8.65;4.18;;;6.00;99.90;;;;;;4962476;28;20043;-76
2021/01/28 10:59:28;;;;;;;7.03;4.40;;;5.90;99.90;;;;;;4964825;28;20038;-77
2021/01/28 11:01:54;;;;;;;7.05;4.45;;;5.90;99.90;;;;;;4968124;28;20046;-77
2021/01/28 11:04:20;;;;;;;6.55;3.92;;;6.00;99.90;;;;;;4963894;28;20033;-76
2021/01/28 11:06:45;;;;;;;8.32;4.28;;;6.00;99.90;;;;;;4968541;28;20478;-76
2021/01/28 11:09:11;;;;;;;6.65;3.83;;;6.00;99.90;;;;;;4964595;28;20035;-76
2021/01/28 11:11:36;;;;;;;9.38;4.80;;;5.90;99.90;;;;;;4967385;28;20038;-76
2021/01/28 11:14:02;;;;;;;7.28;4.18;;;5.80;99.90;;;;;;4966825;28;20413;-77
2021/01/28 11:16:28;;;;;;;6.85;3.95;;;5.80;99.90;;;;;;4962500;28;20069;-76
2021/01/28 11:18:56;;;;;;;7.22;3.90;;;5.90;99.90;;;;;;4959020;28;20031;-76
2021/01/28 11:21:22;;;;;;;5.18;3.20;;;6.00;99.90;;;;;;4961229;28;20085;-76
2021/01/28 11:23:48;;;;;;;6.10;3.53;;;6.10;99.90;;;;;;4960430;28;20046;-76
2021/01/28 11:26:15;;;;;;;6.60;3.83;;;6.10;99.90;;;;;;4962187;28;21802;-76
2021/01/28 11:28:41;;;;;;;5.88;3.13;;;6.10;99.90;;;;;;4966109;28;20034;-76
2021/01/28 11:31:06;;;;;;;5.57;2.95;;;6.00;99.90;;;;;;4962461;28;20027;-76
2021/01/28 11:33:33;;;;;;;4.50;2.70;;;6.00;99.90;;;;;;4964362;28;20370;-76
2021/01/28 11:35:59;;;;;;;4.90;3.08;;;6.00;99.90;;;;;;4962598;28;20027;-76
2021/01/28 11:38:24;;;;;;;4.15;3.03;;;6.10;99.90;;;;;;4960161;28;20031;-76
2021/01/28 11:40:50;;;;;;;5.63;2.97;;;6.10;98.80;;;;;;4963135;28;20061;-76
2021/01/28 11:43:15;;;;;;;4.32;2.63;;;6.00;98.40;;;;;;4962096;28;20037;-76
2021/01/28 11:45:41;;;;;;;4.28;2.70;;;6.10;98.50;;;;;;4962692;28;20183;-77
2021/01/28 11:48:07;;;;;;;4.53;2.50;;;6.10;98.90;;;;;;4962747;28;20034;-76
2021/01/28 11:50:32;;;;;;;3.30;2.00;;;6.00;99.80;;;;;;4960233;28;20122;-77
2021/01/28 11:52:58;;;;;;;2.83;2.20;;;6.00;97.80;;;;;;4961936;28;20030;-77
2021/01/28 11:55:30;;;;;;;4.53;2.40;;;6.00;98.40;;;;;;4960631;28;20470;-76
2021/01/28 11:57:57;;;;;;;2.92;1.90;;;6.00;96.60;;;;;;4980042;28;20371;-77
2021/01/28 12:00:24;;;;;;;4.03;2.30;;;6.10;96.60;;;;;;4966355;28;20031;-76
2021/01/28 12:02:50;;;;;;;3.63;2.22;;;6.10;95.70;;;;;;4964000;28;20035;-76
2021/01/28 12:05:18;;;;;;;3.35;2.13;;;6.10;95.90;;;;;;4963822;28;20094;-76
2021/01/28 12:07:47;;;;;;;4.78;2.30;;;6.00;97.20;;;;;;4958629;28;20037;-76
2021/01/28 12:10:16;;;;;;;3.50;2.30;;;6.00;98.80;;;;;;4958139;28;20020;-77
2021/01/28 12:12:42;;;;;;;3.38;2.03;;;6.00;98.10;;;;;;4964181;28;20038;-76
2021/01/28 12:15:08;;;;;;;3.58;2.00;;;6.10;97.30;;;;;;4962747;28;20051;-76
2021/01/28 12:17:35;;;;;;;3.47;2.00;;;6.10;96.00;;;;;;4959287;28;20374;-76
2021/01/28 12:20:00;;;;;;;3.40;2.15;;;6.10;97.00;;;;;;4969279;28;20039;-76
2021/01/28 12:22:26;;;;;;;3.22;2.17;;;6.20;94.90;;;;;;4974829;28;20029;-76
2021/01/28 12:24:51;;;;;;;3.75;2.13;;;6.20;94.10;;;;;;4966450;28;20121;-76
2021/01/28 12:27:17;;;;;;;4.10;2.65;;;6.20;95.20;;;;;;4955221;28;20026;-76
2021/01/28 12:29:42;;;;;;;4.70;2.50;;;6.30;95.00;;;;;;4967871;28;20382;-76
2021/01/28 12:32:09;;;;;;;2.80;2.20;;;6.30;95.50;;;;;;4963408;28;20122;-76
2021/01/28 12:34:36;;;;;;;3.67;2.30;;;6.30;94.50;;;;;;4969424;28;20030;-76
2021/01/28 12:37:03;;;;;;;3.47;2.08;;;6.40;94.80;;;;;;4962498;28;20034;-76
2021/01/28 12:39:29;;;;;;;3.40;2.10;;;6.30;95.00;;;;;;4962744;28;20042;-76
2021/01/28 12:41:54;;;;;;;2.85;2.00;;;6.30;94.90;;;;;;4967061;28;20030;-76
2021/01/28 12:44:20;;;;;;;4.07;2.20;;;6.30;94.90;;;;;;4963885;28;20077;-76
2021/01/28 12:46:46;;;;;;;3.53;2.28;;;6.10;94.90;;;;;;4968114;28;20031;-76
2021/01/28 12:49:11;;;;;;;2.97;2.00;;;6.00;95.50;;;;;;4969048;28;20378;-75
2021/01/28 12:51:36;;;;;;;5.80;2.22;;;6.00;95.00;;;;;;4968790;28;20034;-76
2021/01/28 12:54:05;;;;;;;3.45;2.10;;;6.10;94.50;;;;;;4969294;28;20581;-76
2021/01/28 12:56:30;;;;;;;3.72;2.20;;;6.00;95.10;;;;;;4961284;28;20110;-76
2021/01/28 12:58:56;;;;;;;4.03;2.35;;;6.00;95.20;;;;;;4954453;28;20459;-77
2021/01/28 13:01:21;;;;;;;4.30;2.60;;;6.00;95.80;;;;;;4963976;28;20031;-76
2021/01/28 13:03:47;;;;;;;4.45;2.33;;;6.10;97.30;;;;;;4953927;28;20114;-76
2021/01/28 13:06:13;;;;;;;4.95;2.65;;;6.10;96.00;;;;;;4963043;28;20023;-76
2021/01/28 13:08:42;;;;;;;4.60;2.72;;;6.10;95.20;;;;;;4964210;28;20058;-76